createdAt,value
2022-09-11T00:02:46.464Z,-11395.97
2022-09-11T00:05:53.391Z,-11389.03
2022-09-11T00:09:01.770Z,-11388.75
2022-09-11T00:12:08.584Z,-11382.28
2022-09-11T00:15:16.366Z,-11383.41
2022-09-11T00:18:22.966Z,-11384.53
2022-09-11T00:21:29.734Z,-11384.53
2022-09-11T00:24:35.918Z,-11385.66
2022-09-11T00:27:42.173Z,-11386.22
2022-09-11T00:30:59.652Z,-11384.41
2022-09-11T00:34:07.003Z,-11386.94
2022-09-11T00:37:13.836Z,-11381.03
2022-09-11T00:40:21.491Z,-11384.25
2022-09-11T00:43:29.639Z,-11378.75
2022-09-11T00:46:41.453Z,-11378.19
2022-09-11T00:49:51.255Z,-11388.19
2022-09-11T00:53:01.212Z,-11385.53
2022-09-11T00:56:09.988Z,-11381.31
2022-09-11T00:59:16.959Z,-11381.88
2022-09-11T01:02:27.622Z,-11382.00
2022-09-11T01:05:36.912Z,-11376.66
2022-09-11T01:08:43.430Z,-11376.78
2022-09-11T01:11:57.857Z,-11374.69
2022-09-11T01:15:07.512Z,-11375.25
2022-09-11T01:18:22.515Z,-11375.94
2022-09-11T01:21:48.399Z,-11375.94
2022-09-11T01:25:07.796Z,-11373.00
2022-09-11T01:28:18.379Z,-11364.81
2022-09-11T01:31:28.271Z,-11348.75
2022-09-11T01:34:39.025Z,-11348.06
2022-09-11T01:37:55.787Z,-11353.13
2022-09-11T01:41:08.645Z,-11354.66
2022-09-11T01:44:21.560Z,-11363.41
2022-09-11T01:47:29.670Z,-11356.06
2022-09-11T01:50:41.539Z,-11357.06
2022-09-11T01:53:51.717Z,-11359.19
2022-09-11T01:57:04.319Z,-11357.06
2022-09-11T02:00:14.722Z,-11356.78
2022-09-11T02:03:26.239Z,-11351.44
2022-09-11T02:06:36.457Z,-11353.41
2022-09-11T02:09:54.152Z,-11355.22
2022-09-11T02:13:07.095Z,-11350.88
2022-09-11T02:16:20.751Z,-11342.28
2022-09-11T02:19:28.854Z,-11344.38
2022-09-11T02:22:36.396Z,-11345.94
2022-09-11T02:25:42.877Z,-11347.63
2022-09-11T02:28:49.457Z,-11352.13
2022-09-11T02:31:57.588Z,-11355.38
2022-09-11T02:35:04.312Z,-11351.72
2022-09-11T02:38:22.547Z,-11348.06
2022-09-11T02:41:34.322Z,-11345.81
2022-09-11T02:44:49.006Z,-11344.53
2022-09-11T02:48:05.270Z,-11348.63
2022-09-11T02:51:22.064Z,-11341.56
2022-09-11T02:54:36.700Z,-11324.09
2022-09-11T02:57:48.866Z,-11333.97
2022-09-11T03:00:59.247Z,-11340.31
2022-09-11T03:04:06.671Z,-11330.16
2022-09-11T03:07:12.833Z,-11329.47
2022-09-11T03:10:18.896Z,-11323.13
2022-09-11T03:13:25.285Z,-11324.66
2022-09-11T03:16:31.645Z,-11333.28
2022-09-11T03:19:39.020Z,-11335.22
2022-09-11T03:22:45.165Z,-11336.66
2022-09-11T03:25:51.495Z,-11334.09
2022-09-11T03:28:57.591Z,-11328.63
2022-09-11T03:32:04.658Z,-11336.94
2022-09-11T03:35:12.315Z,-11335.50
2022-09-11T03:38:18.671Z,-11332.13
2022-09-11T03:41:26.313Z,-11334.09
2022-09-11T03:44:32.484Z,-11322.00
2022-09-11T03:47:40.387Z,-11329.59
2022-09-11T03:50:48.656Z,-11319.75
2022-09-11T03:53:54.788Z,-11321.84
2022-09-11T03:57:01.115Z,-11318.91
2022-09-11T04:00:08.619Z,-11317.63
2022-09-11T04:03:16.463Z,-11322.56
2022-09-11T04:06:24.368Z,-11310.72
2022-09-11T04:09:31.853Z,-11295.81
2022-09-11T04:12:38.303Z,-11299.47
2022-09-11T04:15:44.603Z,-11292.44
2022-09-11T04:18:53.523Z,-11304.25
2022-09-11T04:22:01.406Z,-11308.75
2022-09-11T04:25:08.802Z,-11307.34
2022-09-11T04:28:15.290Z,-11307.63
2022-09-11T04:31:22.703Z,-11314.41
2022-09-11T04:34:29.118Z,-11322.00
2022-09-11T04:37:36.956Z,-11322.84
2022-09-11T04:40:43.131Z,-11328.19
2022-09-11T04:43:50.024Z,-11333.41
2022-09-11T04:46:56.366Z,-11337.06
2022-09-11T04:50:02.725Z,-11333.84
2022-09-11T04:53:10.279Z,-11343.81
2022-09-11T04:56:16.750Z,-11341.00
2022-09-11T04:59:24.514Z,-11353.25
2022-09-11T05:02:30.464Z,-11362.28
2022-09-11T05:05:36.447Z,-11374.25
2022-09-11T05:08:44.844Z,-11374.69
2022-09-11T05:11:51.858Z,-11388.19
2022-09-11T05:14:58.077Z,-11377.34
2022-09-11T05:18:04.574Z,-11384.69
2022-09-11T05:21:14.652Z,-11372.44
2022-09-11T05:24:22.291Z,-11373.00
2022-09-11T05:27:28.202Z,-11375.53
2022-09-11T05:30:34.526Z,-11384.53
2022-09-11T05:33:40.877Z,-11398.50
2022-09-11T05:36:47.235Z,-11409.06
2022-09-11T05:39:55.042Z,-11414.28
2022-09-11T05:43:01.177Z,-11420.34
2022-09-11T05:46:08.887Z,-11422.03
2022-09-11T05:49:16.039Z,-11419.78
2022-09-11T05:52:22.452Z,-11425.97
2022-09-11T05:55:30.342Z,-11432.88
2022-09-11T05:58:36.875Z,-11428.81
2022-09-11T06:01:44.099Z,-11435.69
2022-09-11T06:04:50.391Z,-11424.28
2022-09-11T06:07:56.761Z,-11447.13
2022-09-11T06:11:07.697Z,-11437.69
2022-09-11T06:14:14.198Z,-11441.75
2022-09-11T06:17:20.110Z,-11450.50
2022-09-11T06:20:26.490Z,-11466.44
2022-09-11T06:23:32.611Z,-11451.34
2022-09-11T06:26:40.369Z,-11461.22
2022-09-11T06:29:46.444Z,-11471.66
2022-09-11T06:32:52.457Z,-11464.88
2022-09-11T06:35:59.867Z,-11464.59
2022-09-11T06:39:06.108Z,-11462.50
2022-09-11T06:42:13.562Z,-11480.25
2022-09-11T06:45:19.359Z,-11472.66
2022-09-11T06:48:26.667Z,-11484.06
2022-09-11T06:51:32.812Z,-11484.06
2022-09-11T06:54:39.079Z,-11492.97
2022-09-11T06:57:46.984Z,-11513.13
2022-09-11T07:00:53.113Z,-11516.50
2022-09-11T07:03:59.551Z,-11516.22
2022-09-11T07:07:06.122Z,-11517.63
2022-09-11T07:10:12.312Z,-11523.84
2022-09-11T07:13:20.280Z,-11536.12
2022-09-11T07:16:26.800Z,-11530.47
2022-09-11T07:19:33.771Z,-11542.47
2022-09-11T07:22:40.596Z,-11545.31
2022-09-11T07:25:46.702Z,-11541.91
2022-09-11T07:28:56.070Z,-11557.72
2022-09-11T07:32:02.253Z,-11562.66
2022-09-11T07:35:09.236Z,-11573.09
2022-09-11T07:38:15.315Z,-11567.88
2022-09-11T07:41:22.879Z,-11568.16
2022-09-11T07:44:30.612Z,-11585.25
2022-09-11T07:47:36.382Z,-11566.75
2022-09-11T07:50:44.198Z,-11580.28
2022-09-11T07:53:51.685Z,-11579.72
2022-09-11T07:56:58.259Z,-11580.84
2022-09-11T08:00:07.984Z,-11584.81
2022-09-11T08:03:15.023Z,-11593.00
2022-09-11T08:06:22.507Z,-11588.34
2022-09-11T08:09:29.314Z,-11579.72
2022-09-11T08:12:35.224Z,-11585.38
2022-09-11T08:15:49.174Z,-11593.28
2022-09-11T08:18:56.174Z,-11591.72
2022-09-11T08:22:02.521Z,-11585.66
2022-09-11T08:25:09.054Z,-11593.28
2022-09-11T08:28:15.250Z,-11593.72
2022-09-11T08:31:25.885Z,-11600.75
2022-09-11T08:34:32.242Z,-11599.06
2022-09-11T08:37:38.580Z,-11607.53
2022-09-11T08:40:45.098Z,-11610.78
2022-09-11T08:43:54.836Z,-11609.38
2022-09-11T08:47:08.051Z,-11609.22
2022-09-11T08:50:21.337Z,-11602.19
2022-09-11T08:53:32.108Z,-11612.47
2022-09-11T08:56:39.384Z,-11607.97
2022-09-11T09:00:06.250Z,-11603.72
2022-09-11T09:03:35.310Z,-11615.03
2022-09-11T09:06:55.476Z,-11620.53
2022-09-11T09:10:13.499Z,-11610.78
2022-09-11T09:13:42.856Z,-11619.13
2022-09-11T09:16:54.831Z,-11627.44
2022-09-11T09:20:07.260Z,-11626.47
2022-09-11T09:23:19.579Z,-11624.63
2022-09-11T09:26:34.245Z,-11624.06
2022-09-11T09:29:47.756Z,-11618.41
2022-09-11T09:32:58.991Z,-11626.31
2022-09-11T09:36:16.835Z,-11631.69
2022-09-11T09:39:24.274Z,-11630.28
2022-09-11T09:42:55.826Z,-11633.38
2022-09-11T09:46:15.433Z,-11639.88
2022-09-11T09:49:28.284Z,-11635.22
2022-09-11T09:52:38.095Z,-11635.34
2022-09-11T09:55:47.599Z,-11631.69
2022-09-11T09:59:01.077Z,-11650.03
2022-09-11T10:02:07.916Z,-11642.13
2022-09-11T10:05:20.915Z,-11625.19
2022-09-11T10:08:33.823Z,-11627.44
2022-09-11T10:11:40.853Z,-11639.16
2022-09-11T10:14:53.345Z,-11627.72
2022-09-11T10:18:23.475Z,-11638.59
2022-09-11T10:21:33.594Z,-11651.75
2022-09-11T10:24:44.176Z,-11655.97
2022-09-11T10:28:01.867Z,-11655.25
2022-09-11T10:31:08.402Z,-11646.94
2022-09-11T10:34:20.236Z,-11652.59
2022-09-11T10:37:29.985Z,-11662.75
2022-09-11T10:40:40.298Z,-11663.31
2022-09-11T10:43:51.251Z,-11660.34
2022-09-11T10:47:06.600Z,-11646.66
2022-09-11T10:50:22.904Z,-11655.81
2022-09-11T10:53:29.538Z,-11657.25
2022-09-11T10:56:45.983Z,-11658.38
2022-09-11T11:00:02.411Z,-11660.63
2022-09-11T11:03:17.136Z,-11665.56
2022-09-11T11:06:40.399Z,-11655.13
2022-09-11T11:09:58.498Z,-11674.31
2022-09-11T11:13:19.743Z,-11666.16
2022-09-11T11:16:39.704Z,-11653.00
2022-09-11T11:20:03.602Z,-11664.44
2022-09-11T11:23:26.934Z,-11664.72
2022-09-11T11:26:53.435Z,-11662.19
2022-09-11T11:30:10.180Z,-11653.16
2022-09-11T11:33:37.407Z,-11657.25
2022-09-11T11:36:49.691Z,-11663.31
2022-09-11T11:40:01.499Z,-11686.91
2022-09-11T11:43:12.280Z,-11650.75
2022-09-11T11:46:26.324Z,-11667.84
2022-09-11T11:49:49.082Z,-11673.19
2022-09-11T11:53:04.247Z,-11672.06
2022-09-11T11:56:18.860Z,-11678.44
2022-09-11T11:59:32.176Z,-11684.50
2022-09-11T12:02:46.742Z,-11684.94
2022-09-11T12:05:52.773Z,-11670.94
2022-09-11T12:08:59.333Z,-11670.94
2022-09-11T12:12:08.678Z,-11647.50
2022-09-11T12:15:21.044Z,-11659.91
2022-09-11T12:18:28.570Z,-11668.69
2022-09-11T12:21:38.100Z,-11681.97
2022-09-11T12:24:59.370Z,-11652.44
2022-09-11T12:28:21.791Z,-11673.19
2022-09-11T12:32:07.004Z,-11660.50
2022-09-11T12:35:38.311Z,-11673.19
2022-09-11T12:38:49.804Z,-11695.22
2022-09-11T12:42:34.386Z,-11675.47
2022-09-11T12:45:40.580Z,-11681.97
2022-09-11T12:49:11.403Z,-11683.09
2022-09-11T12:52:43.241Z,-11676.59
2022-09-11T12:55:56.177Z,-11697.78
2022-09-11T12:59:07.701Z,-11696.50
2022-09-11T13:02:29.191Z,-11691.13
2022-09-11T13:05:38.575Z,-11682.38
2022-09-11T13:08:51.815Z,-11684.78
2022-09-11T13:11:59.150Z,-11687.03
2022-09-11T13:15:05.936Z,-11678.00
2022-09-11T13:18:35.895Z,-11685.91
2022-09-11T13:21:43.195Z,-11656.53
2022-09-11T13:24:51.784Z,-11669.97
2022-09-11T13:28:01.640Z,-11668.13
2022-09-11T13:31:08.518Z,-11682.25
2022-09-11T13:34:18.518Z,-11689.59
2022-09-11T13:37:34.320Z,-11688.59
2022-09-11T13:40:47.649Z,-11676.03
2022-09-11T13:43:58.426Z,-11689.44
2022-09-11T13:47:07.567Z,-11667.28
2022-09-11T13:50:16.667Z,-11679.41
2022-09-11T13:53:24.119Z,-11671.78
2022-09-11T13:56:47.122Z,-11665.56
2022-09-11T13:59:57.182Z,-11666.72
2022-09-11T14:03:03.342Z,-11679.84
2022-09-11T14:06:15.252Z,-11659.63
2022-09-11T14:09:23.074Z,-11677.44
2022-09-11T14:12:32.267Z,-11693.41
2022-09-11T14:15:42.552Z,-11666.16
2022-09-11T14:18:52.915Z,-11646.50
2022-09-11T14:21:59.903Z,-11635.50
2022-09-11T14:25:20.875Z,-11656.53
2022-09-11T14:29:00.996Z,-11659.91
2022-09-11T14:32:31.295Z,-11659.50
2022-09-11T14:35:37.847Z,-11625.75
2022-09-11T14:38:43.884Z,-11638.88
2022-09-11T14:41:50.079Z,-11615.88
2022-09-11T14:44:57.745Z,-11608.25
2022-09-11T14:48:04.043Z,-11610.50
2022-09-11T14:51:13.656Z,-11607.41
2022-09-11T14:54:21.779Z,-11609.94
2022-09-11T14:57:36.270Z,-11606.00
2022-09-11T15:00:44.333Z,-11611.06
2022-09-11T15:03:50.427Z,-11598.66
2022-09-11T15:06:57.538Z,-11601.47
2022-09-11T15:10:05.860Z,-11607.13
2022-09-11T15:13:12.108Z,-11618.69
2022-09-11T15:16:19.853Z,-11617.28
2022-09-11T15:19:26.426Z,-11612.91
2022-09-11T15:22:32.598Z,-11605.84
2022-09-11T15:25:38.606Z,-11618.84
2022-09-11T15:28:45.186Z,-11610.09
2022-09-11T15:31:53.762Z,-11609.38
2022-09-11T15:34:59.817Z,-11599.63
2022-09-11T15:38:06.424Z,-11610.38
2022-09-11T15:41:12.600Z,-11608.53
2022-09-11T15:44:21.247Z,-11612.47
2022-09-11T15:47:31.398Z,-11602.88
2022-09-11T15:50:37.534Z,-11600.91
2022-09-11T15:53:44.869Z,-11603.16
2022-09-11T15:56:51.483Z,-11597.53
2022-09-11T15:59:58.347Z,-11588.22
2022-09-11T16:03:05.878Z,-11581.16
2022-09-11T16:06:11.934Z,-11582.28
2022-09-11T16:09:20.095Z,-11578.31
2022-09-11T16:12:26.496Z,-11570.56
2022-09-11T16:15:33.828Z,-11564.78
2022-09-11T16:18:42.731Z,-11564.22
2022-09-11T16:21:50.486Z,-11562.22
2022-09-11T16:24:56.444Z,-11563.06
2022-09-11T16:28:03.120Z,-11557.72
2022-09-11T16:31:09.899Z,-11547.69
2022-09-11T16:34:18.963Z,-11544.59
2022-09-11T16:37:26.103Z,-11529.50
2022-09-11T16:40:32.358Z,-11524.00
2022-09-11T16:43:39.031Z,-11526.41
2022-09-11T16:46:46.258Z,-11521.03
2022-09-11T16:50:09.494Z,-11517.94
2022-09-11T16:53:15.908Z,-11517.63
2022-09-11T16:56:26.018Z,-11516.50
2022-09-11T16:59:32.416Z,-11516.78
2022-09-11T17:02:39.675Z,-11519.91
2022-09-11T17:05:52.255Z,-11518.50
2022-09-11T17:09:00.407Z,-11508.34
2022-09-11T17:12:07.083Z,-11506.62
2022-09-11T17:15:13.051Z,-11508.63
2022-09-11T17:18:19.511Z,-11504.09
2022-09-11T17:21:28.135Z,-11495.91
2022-09-11T17:24:34.150Z,-11491.53
2022-09-11T17:27:40.588Z,-11487.59
2022-09-11T17:30:47.450Z,-11479.84
2022-09-11T17:33:53.763Z,-11490.00
2022-09-11T17:37:01.341Z,-11490.84
2022-09-11T17:40:09.103Z,-11499.59
2022-09-11T17:43:15.654Z,-11499.59
2022-09-11T17:46:24.603Z,-11482.38
2022-09-11T17:49:32.615Z,-11470.09
2022-09-11T17:52:40.227Z,-11461.22
2022-09-11T17:55:47.361Z,-11449.53
2022-09-11T17:58:54.996Z,-11445.44
2022-09-11T18:02:02.212Z,-11448.09
2022-09-11T18:05:09.068Z,-11444.03
2022-09-11T18:08:16.777Z,-11450.94
2022-09-11T18:11:22.951Z,-11443.03
2022-09-11T18:14:29.463Z,-11444.16
2022-09-11T18:17:35.828Z,-11442.34
2022-09-11T18:20:43.291Z,-11444.31
2022-09-11T18:23:51.020Z,-11453.91
2022-09-11T18:27:00.677Z,-11450.94
2022-09-11T18:30:09.792Z,-11452.91
2022-09-11T18:33:17.101Z,-11446.69
2022-09-11T18:36:23.659Z,-11429.38
2022-09-11T18:39:31.166Z,-11421.31
2022-09-11T18:42:37.508Z,-11415.25
2022-09-11T18:45:45.490Z,-11410.06
2022-09-11T18:48:51.628Z,-11402.56
2022-09-11T18:52:00.314Z,-11412.16
2022-09-11T18:55:08.759Z,-11415.53
2022-09-11T18:58:14.862Z,-11416.09
2022-09-11T19:01:24.121Z,-11414.41
2022-09-11T19:04:30.425Z,-11416.81
2022-09-11T19:07:36.937Z,-11418.94
2022-09-11T19:10:44.843Z,-11423.31
2022-09-11T19:13:52.881Z,-11416.25
2022-09-11T19:17:00.358Z,-11420.91
2022-09-11T19:20:09.832Z,-11417.94
2022-09-11T19:23:16.006Z,-11418.22
2022-09-11T19:26:25.706Z,-11423.88
2022-09-11T19:29:32.438Z,-11416.25
2022-09-11T19:32:38.551Z,-11415.53
2022-09-11T19:35:44.938Z,-11419.63
2022-09-11T19:38:53.080Z,-11420.91
2022-09-11T19:42:02.427Z,-11411.47
2022-09-11T19:45:10.342Z,-11415.53
2022-09-11T19:48:17.957Z,-11415.25
2022-09-11T19:51:25.898Z,-11414.97
2022-09-11T19:54:34.669Z,-11398.34
2022-09-11T19:57:42.389Z,-11415.25
2022-09-11T20:00:49.040Z,-11418.09
2022-09-11T20:03:56.614Z,-11417.78
2022-09-11T20:07:03.095Z,-11422.31
2022-09-11T20:10:10.772Z,-11426.25
2022-09-11T20:13:18.275Z,-11418.50
2022-09-11T20:16:26.101Z,-11421.19
2022-09-11T20:19:32.395Z,-11413.84
2022-09-11T20:22:38.921Z,-11419.78
2022-09-11T20:25:45.519Z,-11421.88
2022-09-11T20:28:57.184Z,-11422.59
2022-09-11T20:32:03.868Z,-11417.94
2022-09-11T20:35:10.756Z,-11418.66
2022-09-11T20:38:17.619Z,-11415.53
2022-09-11T20:41:25.515Z,-11414.13
2022-09-11T20:44:36.899Z,-11412.88
2022-09-11T20:47:43.652Z,-11408.63
2022-09-11T20:50:52.134Z,-11410.47
2022-09-11T20:53:58.293Z,-11409.63
2022-09-11T20:57:04.802Z,-11407.94
2022-09-11T21:00:14.015Z,-11405.81
2022-09-11T21:03:20.140Z,-11404.28
2022-09-11T21:06:29.223Z,-11393.84
2022-09-11T21:09:35.568Z,-11395.81
2022-09-11T21:12:41.924Z,-11395.97
2022-09-11T21:15:49.918Z,-11393.41
2022-09-11T21:18:57.568Z,-11397.78
2022-09-11T21:22:03.833Z,-11389.03
2022-09-11T21:25:10.907Z,-11385.94
2022-09-11T21:28:17.307Z,-11385.81
2022-09-11T21:31:25.689Z,-11390.75
2022-09-11T21:34:32.196Z,-11387.91
2022-09-11T21:37:38.623Z,-11384.25
2022-09-11T21:40:45.167Z,-11382.72
2022-09-11T21:43:51.282Z,-11383.13
2022-09-11T21:46:59.008Z,-11389.47
2022-09-11T21:50:07.262Z,-11384.13
2022-09-11T21:53:13.664Z,-11386.09
2022-09-11T21:56:25.279Z,-11387.63
2022-09-11T21:59:33.866Z,-11385.94
2022-09-11T22:02:41.642Z,-11385.38
2022-09-11T22:05:51.337Z,-11392.28
2022-09-11T22:08:57.916Z,-11393.00
2022-09-11T22:12:04.228Z,-11392.16
2022-09-11T22:15:10.845Z,-11387.06
2022-09-11T22:18:19.498Z,-11387.06
2022-09-11T22:21:25.853Z,-11384.25
2022-09-11T22:24:32.465Z,-11380.47
2022-09-11T22:27:38.480Z,-11382.44
2022-09-11T22:30:45.327Z,-11373.28
2022-09-11T22:33:53.827Z,-11373.00
2022-09-11T22:36:59.997Z,-11367.63
2022-09-11T22:40:07.300Z,-11373.28
2022-09-11T22:43:13.719Z,-11377.78
2022-09-11T22:46:21.560Z,-11379.47
2022-09-11T22:49:29.371Z,-11377.63
2022-09-11T22:52:37.411Z,-11380.88
2022-09-11T22:55:45.438Z,-11387.22
2022-09-11T22:58:52.985Z,-11373.97
2022-09-11T23:01:59.879Z,-11378.19
2022-09-11T23:05:26.906Z,-11382.44
2022-09-11T23:08:39.115Z,-11377.78
2022-09-11T23:11:46.587Z,-11374.81
2022-09-11T23:14:54.357Z,-11372.84
2022-09-11T23:18:00.818Z,-11374.97
2022-09-11T23:21:08.790Z,-11373.69
2022-09-11T23:24:16.636Z,-11373.00
2022-09-11T23:27:22.867Z,-11372.44
2022-09-11T23:30:29.031Z,-11378.34
2022-09-11T23:33:35.476Z,-11369.03
2022-09-11T23:36:43.238Z,-11378.06
2022-09-11T23:39:49.506Z,-11377.91
2022-09-11T23:42:55.588Z,-11382.28
2022-09-11T23:46:01.933Z,-11373.56
2022-09-11T23:49:08.338Z,-11373.28
2022-09-11T23:52:16.372Z,-11375.53
2022-09-11T23:55:22.413Z,-11371.56
2022-09-11T23:58:28.690Z,-11374.25
